Jaskul, Russia
Current Conditions -  °F | °C
As of 8:00 PM on Saturday 20 Dec 2014 (Local Time) from URWI Reporting Station
Clear Clear  
Wind Chill: 37°   Ceiling: Unl
Heat Index: 43°   Visibility: 6mi
Dew Point: 37°   Wind: 11mph
Humidity: 81%   Direction: 220°SW
Pressure: 30.03"   Gusts: NA
Location:  46.18°N, 45.35°E
Report Text: URWI 201700Z 22005MPS CAVOK 06/03 Q1017 NOSIG
Loading
Personal Weather Stations






























Interactive Weather Map New forecast layout! Learn more

10-Day Weather Forecast

Advertisements
Track Severe Weather on mobile